sensor_id;sensor_type;location;lat;lon;timestamp;temperature;humidity
54930;DHT22;40833;53.238;6.576;2022-08-03T00:01:04;20.60;99.90
54930;DHT22;40833;53.238;6.576;2022-08-03T00:03:30;20.50;99.90
54930;DHT22;40833;53.238;6.576;2022-08-03T00:05:56;20.50;99.90
54930;DHT22;40833;53.238;6.576;2022-08-03T00:08:22;20.40;99.90
54930;DHT22;40833;53.238;6.576;2022-08-03T00:10:48;20.40;99.90
54930;DHT22;40833;53.238;6.576;2022-08-03T00:13:14;20.40;99.90
54930;DHT22;40833;53.238;6.576;2022-08-03T00:15:41;20.30;99.90
54930;DHT22;40833;53.238;6.576;2022-08-03T00:18:07;20.30;99.90
54930;DHT22;40833;53.238;6.576;2022-08-03T00:20:33;20.30;99.90
54930;DHT22;40833;53.238;6.576;2022-08-03T00:22:58;20.30;99.90
54930;DHT22;40833;53.238;6.576;2022-08-03T00:25:24;20.20;99.90
54930;DHT22;40833;53.238;6.576;2022-08-03T00:27:50;20.20;99.90
54930;DHT22;40833;53.238;6.576;2022-08-03T00:30:15;20.20;99.90
54930;DHT22;40833;53.238;6.576;2022-08-03T00:32:41;20.20;99.90
54930;DHT22;40833;53.238;6.576;2022-08-03T00:35:07;20.10;99.90
54930;DHT22;40833;53.238;6.576;2022-08-03T00:37:33;20.10;99.90
54930;DHT22;40833;53.238;6.576;2022-08-03T00:39:59;20.10;99.90
54930;DHT22;40833;53.238;6.576;2022-08-03T00:42:24;20.10;99.90
54930;DHT22;40833;53.238;6.576;2022-08-03T00:44:50;20.00;99.90
54930;DHT22;40833;53.238;6.576;2022-08-03T00:47:16;20.00;99.90
54930;DHT22;40833;53.238;6.576;2022-08-03T00:49:41;20.00;99.90
54930;DHT22;40833;53.238;6.576;2022-08-03T00:52:08;20.00;99.90
54930;DHT22;40833;53.238;6.576;2022-08-03T00:54:36;20.00;99.90
54930;DHT22;40833;53.238;6.576;2022-08-03T00:57:02;20.00;99.90
54930;DHT22;40833;53.238;6.576;2022-08-03T00:59:31;20.00;99.90
54930;DHT22;40833;53.238;6.576;2022-08-03T01:01:57;19.90;99.90
54930;DHT22;40833;53.238;6.576;2022-08-03T01:04:24;19.90;99.90
54930;DHT22;40833;53.238;6.576;2022-08-03T01:07:16;19.90;99.90
54930;DHT22;40833;53.238;6.576;2022-08-03T01:10:04;19.90;99.90
54930;DHT22;40833;53.238;6.576;2022-08-03T01:12:37;19.90;99.90
54930;DHT22;40833;53.238;6.576;2022-08-03T01:20:33;19.80;99.90
54930;DHT22;40833;53.238;6.576;2022-08-03T01:23:09;19.80;99.90
54930;DHT22;40833;53.238;6.576;2022-08-03T01:26:11;19.80;99.90
54930;DHT22;40833;53.238;6.576;2022-08-03T01:28:55;19.70;99.90
54930;DHT22;40833;53.238;6.576;2022-08-03T01:31:26;19.70;99.90
54930;DHT22;40833;53.238;6.576;2022-08-03T01:33:59;19.70;99.90
54930;DHT22;40833;53.238;6.576;2022-08-03T01:36:35;19.70;99.90
54930;DHT22;40833;53.238;6.576;2022-08-03T01:39:03;19.70;99.90
54930;DHT22;40833;53.238;6.576;2022-08-03T01:41:36;19.60;99.90
54930;DHT22;40833;53.238;6.576;2022-08-03T01:44:09;19.60;99.90
54930;DHT22;40833;53.238;6.576;2022-08-03T01:46:37;19.60;99.90
54930;DHT22;40833;53.238;6.576;2022-08-03T01:49:06;19.60;99.90
54930;DHT22;40833;53.238;6.576;2022-08-03T01:51:36;19.60;99.90
54930;DHT22;40833;53.238;6.576;2022-08-03T01:54:03;19.60;99.90
54930;DHT22;40833;53.238;6.576;2022-08-03T01:56:30;19.50;99.90
54930;DHT22;40833;53.238;6.576;2022-08-03T01:58:59;19.50;99.90
54930;DHT22;40833;53.238;6.576;2022-08-03T02:01:27;19.40;99.90
54930;DHT22;40833;53.238;6.576;2022-08-03T02:03:55;19.40;99.90
54930;DHT22;40833;53.238;6.576;2022-08-03T02:06:25;19.40;99.90
54930;DHT22;40833;53.238;6.576;2022-08-03T02:08:58;19.40;99.90
54930;DHT22;40833;53.238;6.576;2022-08-03T02:11:25;19.40;99.90
54930;DHT22;40833;53.238;6.576;2022-08-03T02:13:52;19.30;99.90
54930;DHT22;40833;53.238;6.576;2022-08-03T02:16:20;19.30;99.90
54930;DHT22;40833;53.238;6.576;2022-08-03T02:18:47;19.30;99.90
54930;DHT22;40833;53.238;6.576;2022-08-03T02:21:14;19.30;99.90
54930;DHT22;40833;53.238;6.576;2022-08-03T02:23:39;19.30;99.90
54930;DHT22;40833;53.238;6.576;2022-08-03T02:26:10;19.20;99.90
54930;DHT22;40833;53.238;6.576;2022-08-03T02:28:41;17.00;99.90
54930;DHT22;40833;53.238;6.576;2022-08-03T02:31:13;19.20;99.90
54930;DHT22;40833;53.238;6.576;2022-08-03T02:33:47;19.20;99.90
54930;DHT22;40833;53.238;6.576;2022-08-03T02:36:15;19.10;99.90
54930;DHT22;40833;53.238;6.576;2022-08-03T02:38:43;19.10;99.90
54930;DHT22;40833;53.238;6.576;2022-08-03T02:41:21;19.10;99.90
54930;DHT22;40833;53.238;6.576;2022-08-03T02:43:49;19.10;99.90
54930;DHT22;40833;53.238;6.576;2022-08-03T02:46:19;19.10;99.90
54930;DHT22;40833;53.238;6.576;2022-08-03T02:48:46;19.10;99.90
54930;DHT22;40833;53.238;6.576;2022-08-03T02:51:13;19.10;99.90
54930;DHT22;40833;53.238;6.576;2022-08-03T02:53:41;19.10;99.90
54930;DHT22;40833;53.238;6.576;2022-08-03T02:56:08;19.10;99.90
54930;DHT22;40833;53.238;6.576;2022-08-03T02:58:36;19.00;99.90
54930;DHT22;40833;53.238;6.576;2022-08-03T03:01:04;19.00;99.90
54930;DHT22;40833;53.238;6.576;2022-08-03T03:03:31;19.00;99.90
54930;DHT22;40833;53.238;6.576;2022-08-03T03:05:58;18.90;99.90
54930;DHT22;40833;53.238;6.576;2022-08-03T03:08:33;18.90;99.90
54930;DHT22;40833;53.238;6.576;2022-08-03T03:11:00;18.90;99.90
54930;DHT22;40833;53.238;6.576;2022-08-03T03:13:29;18.90;99.90
54930;DHT22;40833;53.238;6.576;2022-08-03T03:15:58;18.90;99.90
54930;DHT22;40833;53.238;6.576;2022-08-03T03:18:27;18.90;99.90
54930;DHT22;40833;53.238;6.576;2022-08-03T03:20:53;18.90;99.90
54930;DHT22;40833;53.238;6.576;2022-08-03T03:23:21;18.80;99.90
54930;DHT22;40833;53.238;6.576;2022-08-03T03:25:48;18.80;99.90
54930;DHT22;40833;53.238;6.576;2022-08-03T03:28:14;18.80;99.90
54930;DHT22;40833;53.238;6.576;2022-08-03T03:30:40;18.80;99.90
54930;DHT22;40833;53.238;6.576;2022-08-03T03:33:06;18.70;99.90
54930;DHT22;40833;53.238;6.576;2022-08-03T03:35:33;18.80;99.90
54930;DHT22;40833;53.238;6.576;2022-08-03T03:37:59;18.80;99.90
54930;DHT22;40833;53.238;6.576;2022-08-03T03:40:26;18.80;99.90
54930;DHT22;40833;53.238;6.576;2022-08-03T03:42:52;18.70;99.90
54930;DHT22;40833;53.238;6.576;2022-08-03T03:45:18;18.70;99.90
54930;DHT22;40833;53.238;6.576;2022-08-03T03:47:45;18.70;99.90
54930;DHT22;40833;53.238;6.576;2022-08-03T03:50:11;18.70;99.90
54930;DHT22;40833;53.238;6.576;2022-08-03T03:52:37;18.70;99.90
54930;DHT22;40833;53.238;6.576;2022-08-03T03:55:03;18.70;99.90
54930;DHT22;40833;53.238;6.576;2022-08-03T03:57:28;18.60;99.90
54930;DHT22;40833;53.238;6.576;2022-08-03T03:59:54;18.60;99.90
54930;DHT22;40833;53.238;6.576;2022-08-03T04:02:20;18.60;99.90
54930;DHT22;40833;53.238;6.576;2022-08-03T04:04:46;18.60;99.90
54930;DHT22;40833;53.238;6.576;2022-08-03T04:07:45;18.60;99.90
54930;DHT22;40833;53.238;6.576;2022-08-03T04:10:33;18.60;99.90
54930;DHT22;40833;53.238;6.576;2022-08-03T04:13:19;18.60;99.90
54930;DHT22;40833;53.238;6.576;2022-08-03T04:15:47;18.50;99.90
54930;DHT22;40833;53.238;6.576;2022-08-03T04:18:13;18.50;99.90
54930;DHT22;40833;53.238;6.576;2022-08-03T04:20:44;18.50;99.90
54930;DHT22;40833;53.238;6.576;2022-08-03T04:23:11;18.50;99.90
54930;DHT22;40833;53.238;6.576;2022-08-03T04:25:39;18.50;99.90
54930;DHT22;40833;53.238;6.576;2022-08-03T04:28:07;18.50;99.90
54930;DHT22;40833;53.238;6.576;2022-08-03T04:30:35;18.50;99.90
54930;DHT22;40833;53.238;6.576;2022-08-03T04:33:08;18.50;99.90
54930;DHT22;40833;53.238;6.576;2022-08-03T04:35:35;18.50;99.90
54930;DHT22;40833;53.238;6.576;2022-08-03T04:38:02;18.50;99.90
54930;DHT22;40833;53.238;6.576;2022-08-03T04:40:33;18.50;99.90
54930;DHT22;40833;53.238;6.576;2022-08-03T04:42:59;18.50;99.90
54930;DHT22;40833;53.238;6.576;2022-08-03T04:45:27;18.50;99.90
54930;DHT22;40833;53.238;6.576;2022-08-03T04:47:53;18.50;99.90
54930;DHT22;40833;53.238;6.576;2022-08-03T04:50:20;18.50;99.90
54930;DHT22;40833;53.238;6.576;2022-08-03T04:52:46;18.50;99.90
54930;DHT22;40833;53.238;6.576;2022-08-03T04:55:11;18.50;99.90
54930;DHT22;40833;53.238;6.576;2022-08-03T04:57:40;18.50;99.90
54930;DHT22;40833;53.238;6.576;2022-08-03T05:00:06;18.50;99.90
54930;DHT22;40833;53.238;6.576;2022-08-03T05:02:32;18.50;99.90
54930;DHT22;40833;53.238;6.576;2022-08-03T05:04:59;18.60;99.90
54930;DHT22;40833;53.238;6.576;2022-08-03T05:07:25;18.50;99.90
54930;DHT22;40833;53.238;6.576;2022-08-03T05:09:50;18.50;99.90
54930;DHT22;40833;53.238;6.576;2022-08-03T05:12:16;18.60;99.90
54930;DHT22;40833;53.238;6.576;2022-08-03T05:14:45;18.60;99.90
54930;DHT22;40833;53.238;6.576;2022-08-03T05:17:13;18.60;99.90
54930;DHT22;40833;53.238;6.576;2022-08-03T05:19:39;18.60;99.90
54930;DHT22;40833;53.238;6.576;2022-08-03T05:22:04;18.60;99.90
54930;DHT22;40833;53.238;6.576;2022-08-03T05:24:30;18.70;99.90
54930;DHT22;40833;53.238;6.576;2022-08-03T05:26:56;18.70;99.90
54930;DHT22;40833;53.238;6.576;2022-08-03T05:29:21;18.70;99.90
54930;DHT22;40833;53.238;6.576;2022-08-03T05:31:50;18.70;99.90
54930;DHT22;40833;53.238;6.576;2022-08-03T05:36:42;18.80;99.90
54930;DHT22;40833;53.238;6.576;2022-08-03T05:39:07;18.80;99.90
54930;DHT22;40833;53.238;6.576;2022-08-03T05:41:33;18.90;99.90
54930;DHT22;40833;53.238;6.576;2022-08-03T05:43:59;19.00;99.90
54930;DHT22;40833;53.238;6.576;2022-08-03T05:46:24;19.00;99.90
54930;DHT22;40833;53.238;6.576;2022-08-03T05:48:50;19.00;99.90
54930;DHT22;40833;53.238;6.576;2022-08-03T05:51:16;19.10;99.90
54930;DHT22;40833;53.238;6.576;2022-08-03T05:53:42;19.10;99.90
54930;DHT22;40833;53.238;6.576;2022-08-03T05:56:09;19.20;99.90
54930;DHT22;40833;53.238;6.576;2022-08-03T05:58:34;19.20;99.90
54930;DHT22;40833;53.238;6.576;2022-08-03T06:01:00;19.20;99.90
54930;DHT22;40833;53.238;6.576;2022-08-03T06:03:26;19.30;99.90
54930;DHT22;40833;53.238;6.576;2022-08-03T06:05:53;19.40;99.90
54930;DHT22;40833;53.238;6.576;2022-08-03T06:08:20;19.40;99.90
54930;DHT22;40833;53.238;6.576;2022-08-03T06:10:45;19.50;99.90
54930;DHT22;40833;53.238;6.576;2022-08-03T06:13:11;19.50;99.90
54930;DHT22;40833;53.238;6.576;2022-08-03T06:15:37;19.50;99.90
54930;DHT22;40833;53.238;6.576;2022-08-03T06:18:02;19.60;99.90
54930;DHT22;40833;53.238;6.576;2022-08-03T06:20:28;19.60;99.90
54930;DHT22;40833;53.238;6.576;2022-08-03T06:22:54;19.70;99.90
54930;DHT22;40833;53.238;6.576;2022-08-03T06:25:20;19.70;99.90
54930;DHT22;40833;53.238;6.576;2022-08-03T06:27:46;19.80;99.90
54930;DHT22;40833;53.238;6.576;2022-08-03T06:30:12;19.80;99.90
54930;DHT22;40833;53.238;6.576;2022-08-03T06:32:59;19.90;99.90
54930;DHT22;40833;53.238;6.576;2022-08-03T06:35:24;19.90;99.90
54930;DHT22;40833;53.238;6.576;2022-08-03T06:37:52;19.90;99.90
54930;DHT22;40833;53.238;6.576;2022-08-03T06:40:20;20.00;99.90
54930;DHT22;40833;53.238;6.576;2022-08-03T06:42:53;20.10;99.90
54930;DHT22;40833;53.238;6.576;2022-08-03T06:45:19;20.20;99.90
54930;DHT22;40833;53.238;6.576;2022-08-03T06:47:45;20.30;99.90
54930;DHT22;40833;53.238;6.576;2022-08-03T06:50:11;20.30;99.90
54930;DHT22;40833;53.238;6.576;2022-08-03T06:52:37;20.40;99.90
54930;DHT22;40833;53.238;6.576;2022-08-03T06:55:03;20.40;99.90
54930;DHT22;40833;53.238;6.576;2022-08-03T06:57:29;20.40;99.90
54930;DHT22;40833;53.238;6.576;2022-08-03T06:59:54;20.50;99.90
54930;DHT22;40833;53.238;6.576;2022-08-03T07:02:27;20.60;99.90
54930;DHT22;40833;53.238;6.576;2022-08-03T07:04:52;20.70;99.90
54930;DHT22;40833;53.238;6.576;2022-08-03T07:07:18;20.70;99.90
54930;DHT22;40833;53.238;6.576;2022-08-03T07:09:45;20.80;99.90
54930;DHT22;40833;53.238;6.576;2022-08-03T07:12:12;20.90;99.90
54930;DHT22;40833;53.238;6.576;2022-08-03T07:14:38;20.90;99.90
54930;DHT22;40833;53.238;6.576;2022-08-03T07:17:03;20.90;99.90
54930;DHT22;40833;53.238;6.576;2022-08-03T07:19:29;21.00;99.90
54930;DHT22;40833;53.238;6.576;2022-08-03T07:21:55;21.10;99.90
54930;DHT22;40833;53.238;6.576;2022-08-03T07:24:20;21.10;99.90
54930;DHT22;40833;53.238;6.576;2022-08-03T07:26:46;21.10;99.90
54930;DHT22;40833;53.238;6.576;2022-08-03T07:29:12;21.20;99.90
54930;DHT22;40833;53.238;6.576;2022-08-03T07:31:37;21.20;99.90
54930;DHT22;40833;53.238;6.576;2022-08-03T07:34:03;21.30;99.90
54930;DHT22;40833;53.238;6.576;2022-08-03T07:36:32;21.40;99.90
54930;DHT22;40833;53.238;6.576;2022-08-03T07:38:58;21.40;99.90
54930;DHT22;40833;53.238;6.576;2022-08-03T07:41:24;21.50;99.90
54930;DHT22;40833;53.238;6.576;2022-08-03T07:43:49;21.50;99.90
54930;DHT22;40833;53.238;6.576;2022-08-03T07:46:15;21.50;99.90
54930;DHT22;40833;53.238;6.576;2022-08-03T07:48:44;21.60;99.90
54930;DHT22;40833;53.238;6.576;2022-08-03T07:51:09;21.70;99.90
54930;DHT22;40833;53.238;6.576;2022-08-03T07:53:35;21.70;99.90
54930;DHT22;40833;53.238;6.576;2022-08-03T07:56:01;21.80;99.90
54930;DHT22;40833;53.238;6.576;2022-08-03T07:58:26;21.90;99.90
54930;DHT22;40833;53.238;6.576;2022-08-03T08:00:52;21.90;99.90
54930;DHT22;40833;53.238;6.576;2022-08-03T08:03:18;22.00;99.90
54930;DHT22;40833;53.238;6.576;2022-08-03T08:05:44;22.10;99.90
54930;DHT22;40833;53.238;6.576;2022-08-03T08:08:10;22.10;99.90
54930;DHT22;40833;53.238;6.576;2022-08-03T08:10:35;22.20;99.90
54930;DHT22;40833;53.238;6.576;2022-08-03T08:13:03;22.30;99.90
54930;DHT22;40833;53.238;6.576;2022-08-03T08:15:29;22.40;99.90
54930;DHT22;40833;53.238;6.576;2022-08-03T08:17:57;22.40;99.90
54930;DHT22;40833;53.238;6.576;2022-08-03T08:20:25;22.50;99.90
54930;DHT22;40833;53.238;6.576;2022-08-03T08:22:52;22.60;99.90
54930;DHT22;40833;53.238;6.576;2022-08-03T08:25:19;22.70;99.90
54930;DHT22;40833;53.238;6.576;2022-08-03T08:27:46;22.70;99.90
54930;DHT22;40833;53.238;6.576;2022-08-03T08:30:14;22.70;99.90
54930;DHT22;40833;53.238;6.576;2022-08-03T08:32:40;22.70;99.90
54930;DHT22;40833;53.238;6.576;2022-08-03T08:35:07;22.80;99.90
54930;DHT22;40833;53.238;6.576;2022-08-03T08:37:33;22.80;99.90
54930;DHT22;40833;53.238;6.576;2022-08-03T08:39:59;22.80;99.90
54930;DHT22;40833;53.238;6.576;2022-08-03T09:11:49;22.80;99.90
54930;DHT22;40833;53.238;6.576;2022-08-03T09:34:03;23.90;99.90
54930;DHT22;40833;53.238;6.576;2022-08-03T09:36:49;23.80;99.90
54930;DHT22;40833;53.238;6.576;2022-08-03T09:39:57;23.90;99.90
54930;DHT22;40833;53.238;6.576;2022-08-03T09:42:23;24.00;99.90
54930;DHT22;40833;53.238;6.576;2022-08-03T09:44:52;24.10;99.90
54930;DHT22;40833;53.238;6.576;2022-08-03T17:38:29;31.10;92.30
54930;DHT22;40833;53.238;6.576;2022-08-03T17:40:55;30.30;92.80
54930;DHT22;40833;53.238;6.576;2022-08-03T17:43:22;30.40;92.60
54930;DHT22;40833;53.238;6.576;2022-08-03T17:45:48;30.40;92.90
54930;DHT22;40833;53.238;6.576;2022-08-03T19:21:03;24.30;99.90
54930;DHT22;40833;53.238;6.576;2022-08-03T19:23:30;24.40;99.90
54930;DHT22;40833;53.238;6.576;2022-08-03T19:25:59;24.40;99.90
54930;DHT22;40833;53.238;6.576;2022-08-03T19:28:26;24.40;99.90
54930;DHT22;40833;53.238;6.576;2022-08-03T19:40:37;24.00;99.90
54930;DHT22;40833;53.238;6.576;2022-08-03T19:43:16;24.00;99.90
54930;DHT22;40833;53.238;6.576;2022-08-03T19:45:45;23.90;99.90
54930;DHT22;40833;53.238;6.576;2022-08-03T19:48:12;23.90;99.90
54930;DHT22;40833;53.238;6.576;2022-08-03T19:50:39;23.80;99.90
54930;DHT22;40833;53.238;6.576;2022-08-03T19:58:12;23.70;99.90
54930;DHT22;40833;53.238;6.576;2022-08-03T20:00:39;23.60;99.90
54930;DHT22;40833;53.238;6.576;2022-08-03T20:03:07;23.50;99.90
54930;DHT22;40833;53.238;6.576;2022-08-03T20:05:34;23.50;99.90
54930;DHT22;40833;53.238;6.576;2022-08-03T20:08:02;23.50;99.90
54930;DHT22;40833;53.238;6.576;2022-08-03T20:10:31;23.40;99.90
54930;DHT22;40833;53.238;6.576;2022-08-03T20:12:58;23.40;99.90
54930;DHT22;40833;53.238;6.576;2022-08-03T20:15:25;23.30;99.90
54930;DHT22;40833;53.238;6.576;2022-08-03T20:17:52;23.30;99.90
54930;DHT22;40833;53.238;6.576;2022-08-03T20:20:20;23.20;99.90
54930;DHT22;40833;53.238;6.576;2022-08-03T20:22:47;23.20;99.90
54930;DHT22;40833;53.238;6.576;2022-08-03T20:25:21;23.10;99.90
54930;DHT22;40833;53.238;6.576;2022-08-03T20:27:50;23.10;99.90
54930;DHT22;40833;53.238;6.576;2022-08-03T20:30:18;23.00;99.90
54930;DHT22;40833;53.238;6.576;2022-08-03T20:32:45;23.00;99.90
54930;DHT22;40833;53.238;6.576;2022-08-03T20:35:11;23.00;99.90
54930;DHT22;40833;53.238;6.576;2022-08-03T20:37:37;23.00;99.90
54930;DHT22;40833;53.238;6.576;2022-08-03T20:40:05;22.90;99.90
54930;DHT22;40833;53.238;6.576;2022-08-03T20:42:31;22.90;99.90
54930;DHT22;40833;53.238;6.576;2022-08-03T20:44:57;22.90;99.90
54930;DHT22;40833;53.238;6.576;2022-08-03T20:47:24;22.80;99.90
54930;DHT22;40833;53.238;6.576;2022-08-03T20:49:51;22.80;99.90
54930;DHT22;40833;53.238;6.576;2022-08-03T20:52:17;22.80;99.90
54930;DHT22;40833;53.238;6.576;2022-08-03T20:54:44;22.80;99.90
54930;DHT22;40833;53.238;6.576;2022-08-03T20:57:11;22.80;99.90
54930;DHT22;40833;53.238;6.576;2022-08-03T20:59:38;22.70;99.90
54930;DHT22;40833;53.238;6.576;2022-08-03T21:02:04;22.70;99.90
54930;DHT22;40833;53.238;6.576;2022-08-03T21:04:29;22.70;99.90
54930;DHT22;40833;53.238;6.576;2022-08-03T21:07:06;22.70;99.90
54930;DHT22;40833;53.238;6.576;2022-08-03T21:09:46;22.70;99.90
54930;DHT22;40833;53.238;6.576;2022-08-03T21:12:17;22.60;99.90
54930;DHT22;40833;53.238;6.576;2022-08-03T21:15:05;22.60;99.90
54930;DHT22;40833;53.238;6.576;2022-08-03T21:17:33;22.60;99.90
54930;DHT22;40833;53.238;6.576;2022-08-03T21:20:09;22.60;99.90
54930;DHT22;40833;53.238;6.576;2022-08-03T21:22:37;22.60;99.90
54930;DHT22;40833;53.238;6.576;2022-08-03T21:25:05;22.50;99.90
54930;DHT22;40833;53.238;6.576;2022-08-03T21:27:34;22.50;99.90
54930;DHT22;40833;53.238;6.576;2022-08-03T21:30:08;22.40;99.90
54930;DHT22;40833;53.238;6.576;2022-08-03T21:32:35;22.40;99.90
54930;DHT22;40833;53.238;6.576;2022-08-03T21:35:11;22.40;99.90
54930;DHT22;40833;53.238;6.576;2022-08-03T21:37:40;22.30;99.90
54930;DHT22;40833;53.238;6.576;2022-08-03T21:40:07;22.30;99.90
54930;DHT22;40833;53.238;6.576;2022-08-03T21:42:34;22.30;99.90
54930;DHT22;40833;53.238;6.576;2022-08-03T21:45:06;22.20;99.90
54930;DHT22;40833;53.238;6.576;2022-08-03T21:47:35;22.20;99.90
54930;DHT22;40833;53.238;6.576;2022-08-03T21:50:02;22.20;99.90
54930;DHT22;40833;53.238;6.576;2022-08-03T21:52:34;22.20;99.90
54930;DHT22;40833;53.238;6.576;2022-08-03T21:55:03;22.10;99.90
54930;DHT22;40833;53.238;6.576;2022-08-03T21:57:30;21.80;99.90
54930;DHT22;40833;53.238;6.576;2022-08-03T22:00:13;22.10;99.90
54930;DHT22;40833;53.238;6.576;2022-08-03T22:02:43;22.00;99.90
54930;DHT22;40833;53.238;6.576;2022-08-03T22:05:09;22.00;99.90
54930;DHT22;40833;53.238;6.576;2022-08-03T22:07:37;22.00;99.90
54930;DHT22;40833;53.238;6.576;2022-08-03T22:10:04;22.00;99.90
54930;DHT22;40833;53.238;6.576;2022-08-03T22:12:31;22.00;99.90
54930;DHT22;40833;53.238;6.576;2022-08-03T22:14:58;21.90;99.90
54930;DHT22;40833;53.238;6.576;2022-08-03T22:17:28;21.90;99.90
54930;DHT22;40833;53.238;6.576;2022-08-03T22:19:54;21.80;99.90
54930;DHT22;40833;53.238;6.576;2022-08-03T22:22:22;21.80;99.90
54930;DHT22;40833;53.238;6.576;2022-08-03T22:24:51;21.80;99.90
54930;DHT22;40833;53.238;6.576;2022-08-03T22:27:20;21.80;99.90
54930;DHT22;40833;53.238;6.576;2022-08-03T22:29:58;21.70;99.90
54930;DHT22;40833;53.238;6.576;2022-08-03T22:32:26;21.70;99.90
54930;DHT22;40833;53.238;6.576;2022-08-03T22:34:52;21.70;99.90
54930;DHT22;40833;53.238;6.576;2022-08-03T22:37:19;21.60;99.90
54930;DHT22;40833;53.238;6.576;2022-08-03T22:39:46;21.60;99.90
54930;DHT22;40833;53.238;6.576;2022-08-03T22:42:12;21.60;99.90
54930;DHT22;40833;53.238;6.576;2022-08-03T22:44:39;21.60;99.90
54930;DHT22;40833;53.238;6.576;2022-08-03T22:47:05;21.60;99.90
54930;DHT22;40833;53.238;6.576;2022-08-03T22:49:32;21.60;99.90
54930;DHT22;40833;53.238;6.576;2022-08-03T22:51:59;21.50;99.90
54930;DHT22;40833;53.238;6.576;2022-08-03T22:54:26;21.40;99.90
54930;DHT22;40833;53.238;6.576;2022-08-03T22:56:52;21.40;99.90
54930;DHT22;40833;53.238;6.576;2022-08-03T22:59:18;21.40;99.90
54930;DHT22;40833;53.238;6.576;2022-08-03T23:01:46;21.40;99.90
54930;DHT22;40833;53.238;6.576;2022-08-03T23:04:13;21.40;99.90
54930;DHT22;40833;53.238;6.576;2022-08-03T23:06:41;21.40;99.90
54930;DHT22;40833;53.238;6.576;2022-08-03T23:09:09;21.40;99.90
54930;DHT22;40833;53.238;6.576;2022-08-03T23:11:39;21.30;99.90
54930;DHT22;40833;53.238;6.576;2022-08-03T23:14:10;21.30;99.90
54930;DHT22;40833;53.238;6.576;2022-08-03T23:16:41;21.30;99.90
54930;DHT22;40833;53.238;6.576;2022-08-03T23:19:11;21.20;99.90
54930;DHT22;40833;53.238;6.576;2022-08-03T23:21:37;21.10;99.90
54930;DHT22;40833;53.238;6.576;2022-08-03T23:24:05;21.10;99.90
54930;DHT22;40833;53.238;6.576;2022-08-03T23:26:31;21.10;99.90
54930;DHT22;40833;53.238;6.576;2022-08-03T23:29:01;21.00;99.90
54930;DHT22;40833;53.238;6.576;2022-08-03T23:31:28;21.00;99.90
54930;DHT22;40833;53.238;6.576;2022-08-03T23:33:56;21.10;99.90
54930;DHT22;40833;53.238;6.576;2022-08-03T23:36:42;21.10;99.90
54930;DHT22;40833;53.238;6.576;2022-08-03T23:39:08;21.10;99.90
54930;DHT22;40833;53.238;6.576;2022-08-03T23:41:38;21.10;99.90
54930;DHT22;40833;53.238;6.576;2022-08-03T23:44:04;21.00;99.90
54930;DHT22;40833;53.238;6.576;2022-08-03T23:46:31;21.10;99.90
54930;DHT22;40833;53.238;6.576;2022-08-03T23:48:57;21.10;99.90
54930;DHT22;40833;53.238;6.576;2022-08-03T23:57:28;21.00;99.90
